Aeroporto :







RITROVATECI SU...

 
LOGIN :

Iscrizione | Disclaimer

   EN    FR    IT 

 









Sommario :    VFR   VFR Marginale   IFR   IFR Intensivo   IFR Molto Intensivo
Visibilità : 
Base nubi : 
>= 8 km
>= 3000ft
5 / 8 km
1000 / 3000 ft
1500m / 5 km
500 / 1000 ft
800 / 1500m
200 / 500 ft
< 800m
< 200 ft
Simboli :   Temporali  Nebbia  Neve Forte  Precipitazioni Forti  Vento > 20 kt






- Altitudine del aeroporto : 234 ft
- Codice IATA : PBG


KPBG - Plattsburgh International

ULTIMO METAR :
  • 061953Z AUTO 35005KT 1 1/2SM -SN BR BKN029 OVC037 M03/M04 A2993 RMK AO2 SLP139 P0000 T10281044

METARs OBSOLETI :
  • 061931Z AUTO 36004KT 1 1/4SM -SN BR FEW009 BKN028 OVC036 M03/M04 A2993 RMK AO2 P0000 T10281039
  • 061909Z AUTO 34003KT 1 1/2SM -SN BR SCT008 BKN030 OVC038 M03/M04 A2993 RMK AO2 P0000 T10281039
  • 061853Z AUTO 00000KT 1 3/4SM -SN BR BKN030 OVC038 M03/M04 A2993 RMK AO2 SLP137 P0000 T10281044
  • 061831Z AUTO 33003KT 1 1/2SM -SN BR BKN032 OVC040 M03/M04 A2994 RMK AO2 P0000 T10281044
  • 061808Z AUTO 34004KT 2SM -SN BR BKN035 OVC044 M03/M05 A2994 RMK AO2 P0000 T10281050
  • 061753Z AUTO 36003KT 1 3/4SM -SN BR BKN035 OVC044 M03/M05 A2994 RMK AO2 SLP140 P0000 60000 T10281050 11017 21039 58023
  • 061736Z AUTO 36003KT 2SM -SN BKN032 OVC042 M03/M06 A2994 RMK AO2 P0000 T10281056

TAF KPBG
Valido dal 06 a 19 ore il 07 a 18 ore UTC


061850Z 0619/0718 VRB04KT 3SM -SN BR OVC035
TEMPO 0619/0620 1SM -SN BR BKN025
FM062000 VRB03KT 2SM -SN BR OVC025
FM062200 34008KT 4SM -SN BR BKN025
FM062300 33006KT P6SM VCSH OVC035
FM070300 30004KT P6SM SCT040



MetMap, La meteo Aeronautica in un colpo d'occhio ! - Copyright ORBIFLY Dicembre 2007 - Disclaimer

ORBIFLY MET'MAP TEAM :

Programmazione e sviluppo : Alexandra Zaïnal
Concezione : Baudouin d'Aumeries
Aiuto per la programmazione : Marc-Olivier Méhu
Supporto tecnico e logistico : Manuel Goepfert
Aiuto per la traduzione : Arnaldo La Scala

Contatto : metmap@orbifly.com




FONTI E CREDITI :

   NOAA